createdAt,value
2018-10-21T00:00:01.990Z,999.90
2018-10-21T00:02:29.994Z,999.90
2018-10-21T00:04:57.850Z,865.17
2018-10-21T00:07:25.700Z,999.90
2018-10-21T00:09:53.562Z,999.90
2018-10-21T00:15:01.063Z,999.90
2018-10-21T00:17:28.921Z,999.90
2018-10-21T00:19:56.781Z,999.90
2018-10-21T00:22:24.718Z,999.90
2018-10-21T00:24:52.658Z,999.90
2018-10-21T00:27:20.523Z,999.90
2018-10-21T00:29:48.490Z,999.90
2018-10-21T00:32:16.380Z,942.77
2018-10-21T00:34:44.272Z,973.27
2018-10-21T00:37:12.165Z,982.77
2018-10-21T00:39:40.006Z,539.60
2018-10-21T00:42:07.847Z,736.63
2018-10-21T00:44:35.718Z,613.27
2018-10-21T00:47:03.575Z,509.93
2018-10-21T00:49:31.504Z,741.87
2018-10-21T00:51:59.401Z,949.73
2018-10-21T00:54:27.250Z,825.47
2018-10-21T00:56:55.148Z,801.33
2018-10-21T00:59:23.006Z,515.17
2018-10-21T01:01:51.865Z,523.07
2018-10-21T01:04:19.707Z,675.97
2018-10-21T01:06:47.550Z,956.10
2018-10-21T01:09:15.461Z,886.73
2018-10-21T01:11:43.537Z,999.90
2018-10-21T01:14:11.400Z,999.90
2018-10-21T01:16:39.247Z,183.37
2018-10-21T01:19:07.355Z,164.63
2018-10-21T01:21:35.722Z,108.57
2018-10-21T01:24:03.569Z,141.33
2018-10-21T01:26:31.418Z,570.50
2018-10-21T01:28:59.286Z,751.73
2018-10-21T01:31:27.134Z,663.43
2018-10-21T01:33:54.994Z,516.90
2018-10-21T01:36:23.056Z,523.37
2018-10-21T01:38:50.701Z,398.20
2018-10-21T01:41:18.556Z,347.90
2018-10-21T01:43:46.443Z,358.30
2018-10-21T01:46:14.283Z,233.33
2018-10-21T01:48:42.123Z,313.83
2018-10-21T01:51:10.121Z,461.53
2018-10-21T01:53:37.829Z,414.73
2018-10-21T01:56:05.674Z,163.53
2018-10-21T01:58:33.509Z,97.47
2018-10-21T02:01:01.350Z,174.13
2018-10-21T02:03:29.194Z,363.23
2018-10-21T02:05:57.043Z,307.50
2018-10-21T02:08:24.887Z,303.50
2018-10-21T02:10:52.733Z,350.50
2018-10-21T02:13:20.569Z,407.20
2018-10-21T02:15:48.421Z,505.23
2018-10-21T02:18:16.286Z,401.73
2018-10-21T02:20:44.137Z,240.80
2018-10-21T02:23:11.983Z,59.27
2018-10-21T02:25:39.824Z,138.97
2018-10-21T02:28:07.732Z,266.87
2018-10-21T02:30:35.527Z,211.93
2018-10-21T02:33:03.422Z,507.97
2018-10-21T02:35:31.229Z,515.53
2018-10-21T02:37:59.075Z,804.77
2018-10-21T02:41:33.621Z,552.77
2018-10-21T02:44:01.770Z,20.00
2018-10-21T02:46:30.045Z,35.37
2018-10-21T02:48:58.692Z,15.27
2018-10-21T02:51:26.541Z,10.80
2018-10-21T02:53:54.368Z,9.90
2018-10-21T02:56:22.215Z,15.23
2018-10-21T02:58:50.162Z,18.90
2018-10-21T03:01:18.036Z,16.33
2018-10-21T03:03:45.870Z,17.17
2018-10-21T03:06:13.726Z,26.50
2018-10-21T03:08:41.574Z,18.27
2018-10-21T03:11:09.418Z,15.57
2018-10-21T03:13:37.257Z,16.27
2018-10-21T03:16:05.379Z,16.00
2018-10-21T03:18:33.286Z,12.40
2018-10-21T03:21:02.011Z,14.17
2018-10-21T03:23:29.827Z,16.37
2018-10-21T03:25:57.777Z,11.53
2018-10-21T03:28:25.622Z,32.10
2018-10-21T03:30:53.474Z,45.23
2018-10-21T03:33:21.486Z,39.00
2018-10-21T03:35:49.174Z,41.20
2018-10-21T03:38:17.018Z,47.17
2018-10-21T03:40:44.875Z,117.13
2018-10-21T03:43:12.727Z,175.53
2018-10-21T03:45:40.577Z,171.70
2018-10-21T03:48:08.421Z,376.57
2018-10-21T03:50:36.277Z,445.17
2018-10-21T03:53:04.233Z,263.00
2018-10-21T03:55:34.885Z,457.97
2018-10-21T03:58:02.918Z,562.80
2018-10-21T04:00:30.839Z,607.57
2018-10-21T04:02:58.686Z,609.17
2018-10-21T04:05:26.830Z,294.90
2018-10-21T04:07:54.686Z,197.47
2018-10-21T04:10:22.538Z,111.33
2018-10-21T04:12:50.414Z,205.90
2018-10-21T04:15:18.266Z,275.37
2018-10-21T04:17:46.122Z,634.97
2018-10-21T04:20:13.975Z,731.93
2018-10-21T04:22:47.457Z,832.20
2018-10-21T04:25:15.806Z,846.97
2018-10-21T04:27:43.651Z,825.87
2018-10-21T04:30:12.998Z,515.97
2018-10-21T04:32:43.366Z,156.27
2018-10-21T04:35:11.283Z,243.97
2018-10-21T04:37:44.817Z,228.20
2018-10-21T04:40:16.409Z,160.90
2018-10-21T04:42:45.496Z,67.63
2018-10-21T04:45:14.782Z,48.13
2018-10-21T04:47:42.621Z,34.43
2018-10-21T04:50:11.121Z,28.40
2018-10-21T04:52:39.003Z,19.83
2018-10-21T04:55:09.308Z,21.43
2018-10-21T04:57:38.129Z,18.50
2018-10-21T05:00:08.697Z,19.13
2018-10-21T05:02:36.559Z,32.23
2018-10-21T05:05:04.847Z,28.93
2018-10-21T05:07:32.734Z,25.23
2018-10-21T05:10:00.632Z,29.43
2018-10-21T05:12:28.443Z,52.93
2018-10-21T05:14:56.288Z,41.33
2018-10-21T05:17:24.149Z,42.13
2018-10-21T05:19:52.103Z,35.60
2018-10-21T05:22:19.955Z,78.00
2018-10-21T05:24:47.793Z,75.67
2018-10-21T05:27:15.660Z,26.17
2018-10-21T05:29:43.573Z,13.57
2018-10-21T05:32:11.447Z,12.77
2018-10-21T05:34:39.281Z,14.93
2018-10-21T05:37:07.247Z,16.33
2018-10-21T05:39:35.158Z,28.70
2018-10-21T05:42:02.997Z,27.47
2018-10-21T05:44:30.851Z,15.70
2018-10-21T05:46:58.732Z,13.50
2018-10-21T05:49:26.559Z,13.47
2018-10-21T05:51:54.448Z,22.33
2018-10-21T05:54:22.253Z,24.20
2018-10-21T05:56:51.090Z,19.77
2018-10-21T05:59:19.178Z,22.33
2018-10-21T06:01:47.658Z,37.73
2018-10-21T06:04:16.365Z,41.87
2018-10-21T06:06:44.216Z,52.07
2018-10-21T06:09:13.133Z,36.40
2018-10-21T06:11:40.990Z,37.77
2018-10-21T06:14:08.883Z,61.43
2018-10-21T06:16:42.251Z,99.90
2018-10-21T06:19:12.758Z,119.33
2018-10-21T06:21:41.756Z,189.23
2018-10-21T06:24:09.624Z,224.70
2018-10-21T06:26:37.461Z,279.17
2018-10-21T06:29:05.326Z,394.63
2018-10-21T06:31:33.182Z,307.97
2018-10-21T06:34:01.033Z,423.80
2018-10-21T06:36:28.875Z,591.03
2018-10-21T06:38:56.728Z,726.87
2018-10-21T06:41:24.610Z,818.20
2018-10-21T06:43:52.455Z,940.90
2018-10-21T06:46:20.306Z,999.90
2018-10-21T06:48:48.149Z,999.90
2018-10-21T06:51:16.059Z,999.90
2018-10-21T06:53:43.934Z,999.90
2018-10-21T06:56:11.805Z,999.90
2018-10-21T06:58:39.642Z,999.90
2018-10-21T07:01:07.482Z,999.90
2018-10-21T07:03:35.342Z,999.90
2018-10-21T07:06:11.678Z,999.90
2018-10-21T07:08:39.529Z,999.90
2018-10-21T07:11:07.469Z,999.90
2018-10-21T07:13:35.554Z,999.90
2018-10-21T07:16:03.434Z,999.90
2018-10-21T07:18:31.271Z,999.90
2018-10-21T07:20:59.098Z,999.90
2018-10-21T07:23:26.964Z,999.90
2018-10-21T07:28:29.584Z,999.90
2018-10-21T07:30:57.566Z,999.90
2018-10-21T07:33:31.989Z,999.90
2018-10-21T07:35:59.825Z,999.90
2018-10-21T07:38:27.686Z,999.90
2018-10-21T07:40:55.735Z,999.90
2018-10-21T07:43:23.609Z,999.90
2018-10-21T07:45:51.503Z,999.90
2018-10-21T07:48:19.404Z,999.90
2018-10-21T07:50:47.320Z,999.90
2018-10-21T07:53:15.282Z,999.90
2018-10-21T07:55:43.225Z,999.90
2018-10-21T08:00:44.008Z,999.90
2018-10-21T08:03:11.854Z,999.90
2018-10-21T08:05:45.382Z,999.90
2018-10-21T08:08:14.662Z,999.90
2018-10-21T08:10:42.614Z,999.90
2018-10-21T08:13:11.578Z,999.90
2018-10-21T08:15:39.971Z,999.90
2018-10-21T08:18:08.702Z,999.90
2018-10-21T08:20:37.040Z,999.90
2018-10-21T08:23:05.170Z,999.90
2018-10-21T08:25:33.046Z,999.90
2018-10-21T08:28:00.904Z,999.90
2018-10-21T08:30:28.761Z,999.90
2018-10-21T08:32:56.628Z,999.90
2018-10-21T08:35:24.635Z,999.90
2018-10-21T08:37:52.863Z,999.90
2018-10-21T08:40:20.742Z,999.90
2018-10-21T08:42:48.639Z,999.90
2018-10-21T08:45:16.495Z,999.90
2018-10-21T08:47:44.351Z,999.90
2018-10-21T08:50:13.060Z,979.70
2018-10-21T08:52:40.946Z,999.90
2018-10-21T08:55:09.688Z,999.90
2018-10-21T08:57:37.510Z,998.67
2018-10-21T09:00:06.846Z,959.93
2018-10-21T09:02:34.697Z,999.90
2018-10-21T09:05:02.560Z,999.90
2018-10-21T09:07:30.431Z,992.90
2018-10-21T09:09:58.372Z,999.90
2018-10-21T09:12:26.145Z,999.90
2018-10-21T09:14:54.057Z,999.90
2018-10-21T09:17:21.874Z,999.90
2018-10-21T09:19:49.744Z,999.90
2018-10-21T09:22:17.635Z,999.90
2018-10-21T09:24:45.467Z,999.90
2018-10-21T09:27:13.311Z,999.90
2018-10-21T09:29:41.165Z,999.90
2018-10-21T09:32:09.017Z,999.90
2018-10-21T09:34:36.883Z,999.90
2018-10-21T09:37:05.001Z,999.90
2018-10-21T09:39:32.800Z,999.90
2018-10-21T09:42:00.676Z,999.90
2018-10-21T09:44:28.529Z,999.90
2018-10-21T09:46:56.390Z,999.90
2018-10-21T09:49:24.238Z,999.90
2018-10-21T09:51:52.103Z,999.90
2018-10-21T09:54:19.942Z,951.73
2018-10-21T09:56:47.803Z,999.90
2018-10-21T09:59:15.663Z,999.90
2018-10-21T10:01:49.026Z,999.90
2018-10-21T10:04:16.912Z,931.67
2018-10-21T10:06:44.795Z,997.97
2018-10-21T10:09:13.277Z,983.50
2018-10-21T10:11:41.875Z,836.13
2018-10-21T10:14:09.930Z,735.40
2018-10-21T10:16:38.125Z,727.47
2018-10-21T10:19:06.057Z,661.57
2018-10-21T10:21:34.158Z,893.33
2018-10-21T10:24:02.284Z,944.03
2018-10-21T10:26:29.978Z,733.40
2018-10-21T10:28:57.822Z,809.33
2018-10-21T10:31:25.739Z,777.17
2018-10-21T10:33:53.605Z,628.37
2018-10-21T10:36:21.554Z,458.77
2018-10-21T10:38:49.380Z,357.20
2018-10-21T10:41:17.230Z,389.17
2018-10-21T10:43:45.061Z,63.70
2018-10-21T10:46:12.973Z,66.93
2018-10-21T10:48:40.752Z,626.33
2018-10-21T10:51:09.272Z,65.23
2018-10-21T10:53:37.133Z,228.77
2018-10-21T10:56:05.276Z,13.43
2018-10-21T10:58:33.142Z,62.37
2018-10-21T11:01:01.047Z,56.30
2018-10-21T11:03:28.919Z,97.07
2018-10-21T11:05:56.771Z,207.23
2018-10-21T11:08:24.672Z,281.97
2018-10-21T11:10:52.559Z,126.20
2018-10-21T11:13:20.405Z,96.70
2018-10-21T11:15:48.246Z,308.00
2018-10-21T11:18:16.123Z,290.33
2018-10-21T11:20:43.990Z,206.57
2018-10-21T11:23:11.873Z,137.73
2018-10-21T11:25:39.719Z,70.73
2018-10-21T11:28:07.626Z,12.67
2018-10-21T11:30:35.453Z,13.20
2018-10-21T11:33:03.347Z,13.13
2018-10-21T11:35:31.291Z,26.30
2018-10-21T11:37:59.171Z,18.40
2018-10-21T11:40:27.026Z,19.33
2018-10-21T11:42:55.296Z,9.90
2018-10-21T11:45:23.614Z,9.90
2018-10-21T11:47:52.026Z,6.90
2018-10-21T11:50:20.418Z,7.20
2018-10-21T11:52:48.316Z,8.37
2018-10-21T11:55:16.285Z,11.17
2018-10-21T11:57:44.023Z,6.07
2018-10-21T12:00:12.653Z,7.83
2018-10-21T12:02:40.507Z,6.03
2018-10-21T12:05:08.535Z,5.57
2018-10-21T12:07:36.429Z,5.67
2018-10-21T12:10:05.197Z,6.33
2018-10-21T12:12:33.129Z,5.57
2018-10-21T12:15:01.043Z,6.93
2018-10-21T12:17:28.929Z,6.67
2018-10-21T12:19:56.913Z,5.90
2018-10-21T12:22:24.885Z,5.80
2018-10-21T12:24:52.646Z,5.17
2018-10-21T12:27:20.517Z,5.90
2018-10-21T12:29:48.570Z,7.80
2018-10-21T12:32:16.546Z,6.23
2018-10-21T12:34:44.432Z,6.77
2018-10-21T12:37:12.641Z,6.67
2018-10-21T12:39:40.353Z,7.23
2018-10-21T12:42:08.330Z,7.17
2018-10-21T12:44:36.154Z,5.87
2018-10-21T12:47:04.061Z,6.23
2018-10-21T12:49:31.898Z,6.50
2018-10-21T12:51:59.765Z,11.10
2018-10-21T12:54:27.694Z,14.13
2018-10-21T12:56:55.514Z,9.80
2018-10-21T12:59:23.412Z,6.80
2018-10-21T13:01:51.279Z,11.03
2018-10-21T13:04:19.259Z,26.80
2018-10-21T13:06:47.067Z,12.30
2018-10-21T13:09:14.909Z,24.77
2018-10-21T13:11:42.749Z,13.23
2018-10-21T13:14:10.637Z,11.90
2018-10-21T13:16:38.546Z,10.77
2018-10-21T13:19:06.422Z,15.97
2018-10-21T13:21:34.245Z,6.77
2018-10-21T13:24:02.136Z,9.67
2018-10-21T13:26:30.010Z,14.23
2018-10-21T13:28:57.933Z,13.00
2018-10-21T13:31:25.699Z,5.50
2018-10-21T13:33:53.548Z,5.20
2018-10-21T13:36:21.413Z,7.07
2018-10-21T13:38:49.272Z,7.50
2018-10-21T13:41:17.215Z,6.30
2018-10-21T13:43:45.059Z,6.23
2018-10-21T13:46:13.051Z,5.80
2018-10-21T13:48:40.902Z,5.67
2018-10-21T13:51:08.782Z,6.70
2018-10-21T13:53:36.703Z,7.07
2018-10-21T13:56:04.647Z,6.43
2018-10-21T13:58:32.500Z,8.07
2018-10-21T14:01:00.378Z,6.10
2018-10-21T14:03:28.224Z,10.40
2018-10-21T14:05:56.078Z,9.43
2018-10-21T14:08:23.962Z,10.70
2018-10-21T14:10:51.898Z,8.40
2018-10-21T14:13:19.764Z,6.20
2018-10-21T14:15:47.596Z,7.80
2018-10-21T14:18:15.457Z,9.17
2018-10-21T14:20:43.327Z,8.37
2018-10-21T14:23:11.154Z,9.53
2018-10-21T14:25:39.017Z,12.30
2018-10-21T14:28:12.359Z,20.07
2018-10-21T14:30:47.107Z,11.83
2018-10-21T14:33:21.157Z,11.60
2018-10-21T14:35:49.399Z,12.27
2018-10-21T14:38:19.569Z,20.27
2018-10-21T14:40:47.421Z,16.20
2018-10-21T14:43:15.274Z,16.43
2018-10-21T14:45:43.245Z,24.30
2018-10-21T14:48:11.055Z,13.07
2018-10-21T14:50:38.871Z,8.13
2018-10-21T14:53:06.710Z,10.17
2018-10-21T14:55:34.624Z,11.70
2018-10-21T14:58:02.450Z,18.87
2018-10-21T15:00:30.416Z,64.03
2018-10-21T15:02:58.253Z,140.23
2018-10-21T15:05:26.101Z,192.40
2018-10-21T15:07:53.937Z,195.93
2018-10-21T15:10:21.791Z,306.37
2018-10-21T15:12:49.734Z,343.13
2018-10-21T15:15:17.669Z,454.93
2018-10-21T15:17:45.530Z,496.90
2018-10-21T15:20:13.856Z,633.90
2018-10-21T15:22:41.649Z,680.80
2018-10-21T15:25:10.756Z,807.80
2018-10-21T15:27:38.782Z,807.63
2018-10-21T15:30:06.992Z,876.27
2018-10-21T15:32:34.834Z,951.90
2018-10-21T15:35:06.920Z,916.63
2018-10-21T15:37:34.885Z,970.43
2018-10-21T15:40:02.860Z,999.90
2018-10-21T15:42:30.691Z,999.90
2018-10-21T15:44:58.673Z,999.90
2018-10-21T15:47:26.544Z,999.90
2018-10-21T15:49:54.473Z,999.90
2018-10-21T15:52:22.376Z,999.90
2018-10-21T15:54:50.191Z,999.90
2018-10-21T15:57:18.032Z,999.90
2018-10-21T15:59:46.102Z,999.90
2018-10-21T16:02:14.074Z,716.33
2018-10-21T16:04:41.847Z,898.60
2018-10-21T16:07:09.791Z,819.03
2018-10-21T16:09:37.683Z,853.53
2018-10-21T16:12:05.525Z,600.73
2018-10-21T16:14:33.381Z,788.27
2018-10-21T16:17:01.273Z,999.90
2018-10-21T16:19:29.117Z,995.63
2018-10-21T16:21:56.997Z,873.97
2018-10-21T16:24:24.825Z,834.90
2018-10-21T16:26:52.830Z,833.10
2018-10-21T16:29:20.691Z,959.23
2018-10-21T16:31:48.562Z,999.90
2018-10-21T16:34:16.487Z,999.90
2018-10-21T16:36:44.299Z,999.90
2018-10-21T16:39:12.166Z,999.90
2018-10-21T16:41:40.007Z,992.50
2018-10-21T16:44:07.866Z,967.43
2018-10-21T16:46:35.757Z,974.73
2018-10-21T16:49:03.625Z,840.50
2018-10-21T16:51:31.539Z,640.63
2018-10-21T16:53:59.363Z,795.13
2018-10-21T16:56:27.193Z,953.17
2018-10-21T16:58:55.049Z,999.90
2018-10-21T17:01:22.985Z,994.87
2018-10-21T17:03:50.975Z,999.90
2018-10-21T17:06:18.934Z,945.90
2018-10-21T17:08:46.805Z,888.87
2018-10-21T17:11:14.829Z,989.60
2018-10-21T17:13:42.763Z,781.83
2018-10-21T17:16:10.877Z,999.90
2018-10-21T17:18:38.686Z,991.43
2018-10-21T17:21:06.604Z,999.90
2018-10-21T17:23:34.441Z,999.90
2018-10-21T17:26:02.370Z,999.90
2018-10-21T17:28:30.326Z,999.90
2018-10-21T17:30:58.246Z,999.90
2018-10-21T17:33:26.136Z,999.90
2018-10-21T17:35:54.050Z,999.90
2018-10-21T17:38:22.007Z,999.90
2018-10-21T17:40:50.017Z,999.90
2018-10-21T17:43:17.925Z,999.90
2018-10-21T17:45:45.742Z,999.90
2018-10-21T17:48:13.653Z,999.90
2018-10-21T17:50:41.515Z,999.90
2018-10-21T17:53:09.370Z,999.90
2018-10-21T17:55:37.393Z,999.90
2018-10-21T17:58:05.305Z,999.90
2018-10-21T18:00:33.162Z,999.90
2018-10-21T18:03:01.010Z,999.90
2018-10-21T18:05:28.879Z,999.90
2018-10-21T18:07:56.840Z,999.90
2018-10-21T18:10:24.813Z,999.90
2018-10-21T18:12:52.698Z,999.90
2018-10-21T18:15:20.618Z,999.90
2018-10-21T18:17:48.494Z,999.90
2018-10-21T18:20:16.341Z,999.90
2018-10-21T18:22:44.213Z,999.90
2018-10-21T18:25:12.097Z,999.90
2018-10-21T18:27:40.414Z,999.90
2018-10-21T18:30:08.947Z,999.90
2018-10-21T18:32:36.805Z,999.90
2018-10-21T18:35:05.354Z,999.90
2018-10-21T18:37:33.262Z,999.90
2018-10-21T18:40:01.366Z,999.90
2018-10-21T18:42:29.194Z,999.90
2018-10-21T18:44:57.129Z,999.90
2018-10-21T18:47:25.115Z,999.90
2018-10-21T18:49:53.143Z,999.90
2018-10-21T18:52:21.032Z,999.90
2018-10-21T18:54:49.331Z,999.90
2018-10-21T18:57:17.256Z,999.90
2018-10-21T18:59:45.178Z,999.90
2018-10-21T19:02:13.061Z,999.90
2018-10-21T19:04:41.068Z,999.90
2018-10-21T19:07:09.738Z,999.90
2018-10-21T19:09:37.604Z,999.90
2018-10-21T19:12:05.647Z,999.90
2018-10-21T19:14:33.490Z,999.90
2018-10-21T19:17:01.551Z,999.90
2018-10-21T19:19:29.398Z,999.90
2018-10-21T19:21:57.303Z,999.90
2018-10-21T19:24:25.254Z,999.90
2018-10-21T19:26:53.119Z,999.90
2018-10-21T19:29:21.028Z,999.90
2018-10-21T19:31:49.042Z,999.90
2018-10-21T19:34:17.016Z,999.90
2018-10-21T19:36:45.000Z,999.90
2018-10-21T19:39:13.395Z,999.90
2018-10-21T19:41:41.318Z,999.90
2018-10-21T19:44:10.427Z,999.90
2018-10-21T19:46:38.346Z,999.90
2018-10-21T19:49:06.469Z,999.90
2018-10-21T19:51:34.357Z,999.90
2018-10-21T19:54:02.233Z,999.90
2018-10-21T19:56:31.594Z,999.90
2018-10-21T19:59:00.007Z,999.90
2018-10-21T20:01:27.862Z,999.90
2018-10-21T20:03:55.887Z,999.90
2018-10-21T20:06:23.721Z,999.90
2018-10-21T20:08:51.599Z,999.90
2018-10-21T20:11:19.603Z,999.90
2018-10-21T20:13:47.657Z,999.90
2018-10-21T20:16:15.545Z,999.90
2018-10-21T20:18:43.363Z,999.90
2018-10-21T20:21:11.245Z,999.90
2018-10-21T20:23:39.094Z,999.90
2018-10-21T20:26:07.351Z,999.90
2018-10-21T20:28:35.231Z,999.90
2018-10-21T20:31:03.110Z,999.90
2018-10-21T20:33:30.973Z,999.90
2018-10-21T20:35:58.814Z,999.90
2018-10-21T20:38:26.764Z,999.90
2018-10-21T20:40:54.593Z,999.90
2018-10-21T20:43:22.451Z,999.90
2018-10-21T20:45:50.293Z,999.90
2018-10-21T20:48:18.281Z,999.90
2018-10-21T20:50:46.051Z,999.90
2018-10-21T20:53:13.925Z,999.90
2018-10-21T20:55:41.810Z,999.90
2018-10-21T20:58:09.704Z,999.90
2018-10-21T21:00:37.594Z,999.90
2018-10-21T21:03:05.551Z,999.90
2018-10-21T21:05:33.398Z,999.90
2018-10-21T21:08:01.294Z,999.90
2018-10-21T21:10:29.153Z,999.90
2018-10-21T21:12:56.990Z,999.90
2018-10-21T21:15:24.833Z,999.90
2018-10-21T21:17:52.695Z,999.90
2018-10-21T21:20:20.550Z,999.90
2018-10-21T21:22:48.416Z,999.90
2018-10-21T21:25:16.285Z,999.90
2018-10-21T21:27:44.130Z,999.90
2018-10-21T21:30:12.033Z,999.90
2018-10-21T21:32:39.965Z,999.90
2018-10-21T21:35:08.105Z,999.90
2018-10-21T21:37:36.034Z,999.90
2018-10-21T21:40:04.468Z,999.90
2018-10-21T21:42:32.287Z,999.90
2018-10-21T21:45:00.150Z,999.90
2018-10-21T21:47:27.999Z,999.90
2018-10-21T21:49:55.868Z,999.90
2018-10-21T21:52:23.803Z,999.90
2018-10-21T21:54:51.671Z,999.90
2018-10-21T21:57:19.623Z,999.90
2018-10-21T21:59:47.502Z,999.90
2018-10-21T22:02:15.458Z,999.90
2018-10-21T22:04:43.314Z,999.90
2018-10-21T22:07:11.167Z,999.90
2018-10-21T22:09:39.031Z,999.90
2018-10-21T22:12:06.943Z,999.90
2018-10-21T22:14:34.808Z,999.90
2018-10-21T22:17:02.650Z,999.90
2018-10-21T22:19:30.542Z,999.90
2018-10-21T22:21:58.404Z,999.90
2018-10-21T22:24:26.281Z,999.90
2018-10-21T22:26:54.155Z,999.90
2018-10-21T22:29:22.000Z,999.90
2018-10-21T22:31:49.884Z,999.90
2018-10-21T22:34:17.827Z,999.90
2018-10-21T22:36:45.626Z,999.90
2018-10-21T22:39:13.469Z,999.90
2018-10-21T22:41:41.397Z,999.90
2018-10-21T22:44:09.275Z,999.90
2018-10-21T22:46:37.239Z,999.90
2018-10-21T22:49:05.104Z,999.90
2018-10-21T22:51:32.954Z,999.90
2018-10-21T22:54:00.855Z,999.90
2018-10-21T22:56:28.673Z,999.90
2018-10-21T22:58:56.518Z,999.90
2018-10-21T23:01:24.376Z,999.90
2018-10-21T23:03:52.681Z,999.90
2018-10-21T23:06:20.517Z,999.90
2018-10-21T23:08:48.387Z,999.90
2018-10-21T23:11:16.243Z,999.90
2018-10-21T23:13:44.097Z,999.90
2018-10-21T23:16:11.993Z,999.90
2018-10-21T23:18:39.817Z,999.90
2018-10-21T23:21:07.633Z,999.90
2018-10-21T23:23:35.477Z,999.90
2018-10-21T23:26:03.333Z,999.90
2018-10-21T23:28:31.223Z,999.90
2018-10-21T23:30:59.143Z,999.90
2018-10-21T23:33:26.997Z,999.90
2018-10-21T23:35:54.877Z,999.90
2018-10-21T23:38:22.714Z,999.90
2018-10-21T23:40:50.569Z,999.90
2018-10-21T23:43:18.433Z,999.90
2018-10-21T23:45:46.290Z,999.90
2018-10-21T23:48:14.218Z,999.90
2018-10-21T23:50:42.005Z,999.90
2018-10-21T23:53:09.898Z,999.90
2018-10-21T23:55:37.808Z,999.90
2018-10-21T23:58:05.691Z,999.90
